sensor_id;sensor_type;location;lat;lon;timestamp;P1;durP1;ratioP1;P2;durP2;ratioP2
29302;SDS011;60019;45.556;12.004;2023-11-19T00:05:10;47.38;;;31.92;;
29302;SDS011;60019;45.556;12.004;2023-11-19T00:11:12;65.35;;;31.77;;
29302;SDS011;60019;45.556;12.004;2023-11-19T00:17:16;51.03;;;30.70;;
29302;SDS011;60019;45.556;12.004;2023-11-19T00:23:18;48.50;;;30.05;;
29302;SDS011;60019;45.556;12.004;2023-11-19T00:29:19;45.22;;;28.50;;
29302;SDS011;60019;45.556;12.004;2023-11-19T00:35:21;47.50;;;28.70;;
29302;SDS011;60019;45.556;12.004;2023-11-19T00:41:23;71.03;;;32.13;;
29302;SDS011;60019;45.556;12.004;2023-11-19T00:47:26;105.15;;;36.58;;
29302;SDS011;60019;45.556;12.004;2023-11-19T00:53:28;105.90;;;37.33;;
29302;SDS011;60019;45.556;12.004;2023-11-19T00:59:30;115.13;;;36.88;;
29302;SDS011;60019;45.556;12.004;2023-11-19T01:05:33;101.10;;;36.63;;
29302;SDS011;60019;45.556;12.004;2023-11-19T01:11:35;87.88;;;33.03;;
29302;SDS011;60019;45.556;12.004;2023-11-19T01:17:37;85.32;;;30.60;;
29302;SDS011;60019;45.556;12.004;2023-11-19T01:23:39;80.00;;;29.77;;
29302;SDS011;60019;45.556;12.004;2023-11-19T01:29:41;73.32;;;28.05;;
29302;SDS011;60019;45.556;12.004;2023-11-19T01:35:44;64.70;;;27.00;;
29302;SDS011;60019;45.556;12.004;2023-11-19T01:41:45;66.22;;;26.77;;
29302;SDS011;60019;45.556;12.004;2023-11-19T01:47:47;58.88;;;24.75;;
29302;SDS011;60019;45.556;12.004;2023-11-19T01:53:50;59.60;;;25.27;;
29302;SDS011;60019;45.556;12.004;2023-11-19T01:59:52;51.20;;;23.13;;
29302;SDS011;60019;45.556;12.004;2023-11-19T02:05:54;47.10;;;21.50;;
29302;SDS011;60019;45.556;12.004;2023-11-19T02:11:56;47.05;;;21.10;;
29302;SDS011;60019;45.556;12.004;2023-11-19T02:18:16;44.03;;;21.75;;
29302;SDS011;60019;45.556;12.004;2023-11-19T02:24:19;40.15;;;19.88;;
29302;SDS011;60019;45.556;12.004;2023-11-19T02:30:23;43.20;;;20.40;;
29302;SDS011;60019;45.556;12.004;2023-11-19T02:36:30;37.13;;;20.30;;
29302;SDS011;60019;45.556;12.004;2023-11-19T02:42:32;38.70;;;20.02;;
29302;SDS011;60019;45.556;12.004;2023-11-19T02:48:34;34.35;;;17.90;;
29302;SDS011;60019;45.556;12.004;2023-11-19T02:54:36;47.75;;;19.95;;
29302;SDS011;60019;45.556;12.004;2023-11-19T03:00:39;29.60;;;16.75;;
29302;SDS011;60019;45.556;12.004;2023-11-19T03:06:48;34.28;;;19.20;;
29302;SDS011;60019;45.556;12.004;2023-11-19T03:12:50;26.35;;;15.52;;
29302;SDS011;60019;45.556;12.004;2023-11-19T03:18:52;32.53;;;16.15;;
29302;SDS011;60019;45.556;12.004;2023-11-19T03:24:54;23.42;;;14.40;;
29302;SDS011;60019;45.556;12.004;2023-11-19T03:30:56;22.42;;;13.48;;
29302;SDS011;60019;45.556;12.004;2023-11-19T03:36:59;22.85;;;12.38;;
29302;SDS011;60019;45.556;12.004;2023-11-19T03:43:01;22.52;;;13.70;;
29302;SDS011;60019;45.556;12.004;2023-11-19T03:49:05;25.85;;;13.23;;
29302;SDS011;60019;45.556;12.004;2023-11-19T03:55:08;20.73;;;12.48;;
29302;SDS011;60019;45.556;12.004;2023-11-19T04:01:10;19.17;;;12.27;;
29302;SDS011;60019;45.556;12.004;2023-11-19T04:07:14;21.27;;;12.88;;
29302;SDS011;60019;45.556;12.004;2023-11-19T04:13:16;18.90;;;12.32;;
29302;SDS011;60019;45.556;12.004;2023-11-19T04:19:18;20.17;;;12.30;;
29302;SDS011;60019;45.556;12.004;2023-11-19T04:25:20;19.73;;;11.27;;
29302;SDS011;60019;45.556;12.004;2023-11-19T04:31:22;23.45;;;13.32;;
29302;SDS011;60019;45.556;12.004;2023-11-19T04:37:27;23.10;;;13.15;;
29302;SDS011;60019;45.556;12.004;2023-11-19T04:43:28;18.58;;;11.98;;
29302;SDS011;60019;45.556;12.004;2023-11-19T04:49:30;23.88;;;11.43;;
29302;SDS011;60019;45.556;12.004;2023-11-19T04:55:32;20.15;;;12.95;;
29302;SDS011;60019;45.556;12.004;2023-11-19T05:01:34;17.20;;;10.98;;
29302;SDS011;60019;45.556;12.004;2023-11-19T05:07:36;18.77;;;12.35;;
29302;SDS011;60019;45.556;12.004;2023-11-19T05:13:38;19.35;;;11.75;;
29302;SDS011;60019;45.556;12.004;2023-11-19T05:19:40;16.85;;;11.88;;
29302;SDS011;60019;45.556;12.004;2023-11-19T05:25:42;17.50;;;11.07;;
29302;SDS011;60019;45.556;12.004;2023-11-19T05:31:44;15.70;;;10.70;;
29302;SDS011;60019;45.556;12.004;2023-11-19T05:37:46;15.13;;;10.20;;
29302;SDS011;60019;45.556;12.004;2023-11-19T05:43:47;15.07;;;9.65;;
29302;SDS011;60019;45.556;12.004;2023-11-19T05:49:49;14.82;;;9.52;;
29302;SDS011;60019;45.556;12.004;2023-11-19T05:55:51;14.77;;;9.25;;
29302;SDS011;60019;45.556;12.004;2023-11-19T06:01:57;15.43;;;9.30;;
29302;SDS011;60019;45.556;12.004;2023-11-19T06:07:59;12.75;;;9.40;;
29302;SDS011;60019;45.556;12.004;2023-11-19T06:14:01;15.68;;;9.52;;
29302;SDS011;60019;45.556;12.004;2023-11-19T06:20:04;14.70;;;8.05;;
29302;SDS011;60019;45.556;12.004;2023-11-19T06:26:06;14.25;;;7.95;;
29302;SDS011;60019;45.556;12.004;2023-11-19T06:32:07;13.05;;;8.85;;
29302;SDS011;60019;45.556;12.004;2023-11-19T06:38:10;12.20;;;8.27;;
29302;SDS011;60019;45.556;12.004;2023-11-19T06:44:12;13.18;;;8.60;;
29302;SDS011;60019;45.556;12.004;2023-11-19T06:50:14;12.05;;;7.68;;
29302;SDS011;60019;45.556;12.004;2023-11-19T07:02:21;16.20;;;8.68;;
29302;SDS011;60019;45.556;12.004;2023-11-19T07:08:23;16.75;;;8.35;;
29302;SDS011;60019;45.556;12.004;2023-11-19T07:14:25;14.30;;;9.30;;
29302;SDS011;60019;45.556;12.004;2023-11-19T07:20:27;15.43;;;9.10;;
29302;SDS011;60019;45.556;12.004;2023-11-19T07:26:29;14.15;;;8.23;;
29302;SDS011;60019;45.556;12.004;2023-11-19T07:32:30;18.05;;;11.05;;
29302;SDS011;60019;45.556;12.004;2023-11-19T07:38:32;16.58;;;12.23;;
29302;SDS011;60019;45.556;12.004;2023-11-19T07:44:34;13.30;;;9.80;;
29302;SDS011;60019;45.556;12.004;2023-11-19T07:50:36;16.98;;;10.77;;
29302;SDS011;60019;45.556;12.004;2023-11-19T07:56:37;20.10;;;11.80;;
29302;SDS011;60019;45.556;12.004;2023-11-19T08:02:39;13.95;;;9.65;;
29302;SDS011;60019;45.556;12.004;2023-11-19T08:08:41;15.70;;;9.35;;
29302;SDS011;60019;45.556;12.004;2023-11-19T08:14:43;15.32;;;10.02;;
29302;SDS011;60019;45.556;12.004;2023-11-19T08:20:45;15.25;;;9.85;;
29302;SDS011;60019;45.556;12.004;2023-11-19T08:26:49;24.35;;;11.45;;
29302;SDS011;60019;45.556;12.004;2023-11-19T08:32:51;17.33;;;10.10;;
29302;SDS011;60019;45.556;12.004;2023-11-19T08:38:53;17.77;;;10.73;;
29302;SDS011;60019;45.556;12.004;2023-11-19T08:44:55;14.38;;;10.32;;
29302;SDS011;60019;45.556;12.004;2023-11-19T08:50:57;16.23;;;10.48;;
29302;SDS011;60019;45.556;12.004;2023-11-19T08:56:59;12.60;;;8.90;;
29302;SDS011;60019;45.556;12.004;2023-11-19T09:03:01;16.55;;;8.85;;
29302;SDS011;60019;45.556;12.004;2023-11-19T09:09:03;14.18;;;8.80;;
29302;SDS011;60019;45.556;12.004;2023-11-19T09:15:06;17.80;;;8.95;;
29302;SDS011;60019;45.556;12.004;2023-11-19T09:21:10;17.38;;;9.40;;
29302;SDS011;60019;45.556;12.004;2023-11-19T09:27:11;24.50;;;12.68;;
29302;SDS011;60019;45.556;12.004;2023-11-19T09:33:13;22.05;;;10.15;;
29302;SDS011;60019;45.556;12.004;2023-11-19T09:39:15;16.10;;;9.50;;
29302;SDS011;60019;45.556;12.004;2023-11-19T09:45:19;18.20;;;9.52;;
29302;SDS011;60019;45.556;12.004;2023-11-19T09:51:22;13.07;;;8.38;;
29302;SDS011;60019;45.556;12.004;2023-11-19T09:57:24;16.45;;;8.98;;
29302;SDS011;60019;45.556;12.004;2023-11-19T10:03:32;13.10;;;7.57;;
29302;SDS011;60019;45.556;12.004;2023-11-19T10:09:35;10.50;;;6.73;;
29302;SDS011;60019;45.556;12.004;2023-11-19T10:15:37;12.45;;;7.38;;
29302;SDS011;60019;45.556;12.004;2023-11-19T10:21:39;7.75;;;5.93;;
29302;SDS011;60019;45.556;12.004;2023-11-19T10:27:41;8.98;;;6.28;;
29302;SDS011;60019;45.556;12.004;2023-11-19T10:33:43;10.02;;;6.53;;
29302;SDS011;60019;45.556;12.004;2023-11-19T10:39:52;8.50;;;5.80;;
29302;SDS011;60019;45.556;12.004;2023-11-19T10:46:17;8.48;;;5.25;;
29302;SDS011;60019;45.556;12.004;2023-11-19T10:52:23;9.13;;;5.45;;
29302;SDS011;60019;45.556;12.004;2023-11-19T10:58:28;8.18;;;5.35;;
29302;SDS011;60019;45.556;12.004;2023-11-19T11:04:30;7.15;;;4.68;;
29302;SDS011;60019;45.556;12.004;2023-11-19T11:10:35;7.65;;;5.60;;
29302;SDS011;60019;45.556;12.004;2023-11-19T11:16:42;8.68;;;5.13;;
29302;SDS011;60019;45.556;12.004;2023-11-19T11:41:21;5.13;;;3.83;;
29302;SDS011;60019;45.556;12.004;2023-11-19T11:47:23;6.88;;;3.78;;
29302;SDS011;60019;45.556;12.004;2023-11-19T11:53:25;11.10;;;6.65;;
29302;SDS011;60019;45.556;12.004;2023-11-19T11:59:31;10.52;;;6.80;;
29302;SDS011;60019;45.556;12.004;2023-11-19T12:05:38;8.65;;;5.63;;
29302;SDS011;60019;45.556;12.004;2023-11-19T12:11:46;9.30;;;6.03;;
29302;SDS011;60019;45.556;12.004;2023-11-19T12:17:49;10.35;;;5.18;;
29302;SDS011;60019;45.556;12.004;2023-11-19T12:23:51;9.35;;;5.72;;
29302;SDS011;60019;45.556;12.004;2023-11-19T12:29:53;12.13;;;6.22;;
29302;SDS011;60019;45.556;12.004;2023-11-19T12:35:55;9.77;;;6.20;;
